KCM weather

Kahramanmaraş Airport
Kahramanmaraş, Kahramanmaraş Province, Turkey

Public forecast

Using degrees Celsius for public forecast. Weather courtesy of forecast.io.

Current aviation weather report (METAR) for Kahramanmaraş Airport

Retrieved 2020/07/04 17:50 UTC (33 minutes ago):

LTCN 041750Z 30008KT CAVOK 31/14 Q1006 NOSIG

Closest aviation forecast (TAF) to Kahramanmaraş Airport

Closest forecast is Gaziantep International Airport, 43.5 nm (80.6 km) SE. Retrieved 2020/07/04 18:03 UTC (20 minutes ago):

TAF LTAJ 041640Z 0418/0518 VRB02KT CAVOK BECMG 0510/0512 FEW040 SCT100 TEMPO 0513/0517 29012KT BECMG 0516/0518 CAVOK